Time;durP1;ratioP1;P1;durP2;ratioP2;P2;SDS_P1;SDS_P2;PMS_P1;PMS_P2;Temp;Humidity;BMP_temperature;BMP_pressure;BME280_temperature;BME280_humidity;BME280_pressure;Samples;Min_cycle;Max_cycle;Signal;HPM_P1;HPM_P2
2023/09/03 00:01:17;;;;;;;0.10;0.10;;;;;;;20.57;100.00;100625.50;5090991;28;20051;-64
2023/09/03 00:03:42;;;;;;;0.13;0.13;;;;;;;20.59;100.00;100639.75;5089312;28;20016;-63
2023/09/03 00:06:08;;;;;;;0.20;0.20;;;;;;;20.58;100.00;100624.50;5070239;28;20028;-63
2023/09/03 00:08:33;;;;;;;0.10;0.10;;;;;;;20.58;100.00;100620.94;5070166;28;20048;-63
2023/09/03 00:10:59;;;;;;;0.10;0.10;;;;;;;20.54;100.00;100620.25;5070433;28;20035;-64
2023/09/03 00:13:24;;;;;;;0.20;0.20;;;;;;;20.55;100.00;100622.00;5077020;28;20032;-63
2023/09/03 00:15:50;;;;;;;0.20;0.20;;;;;;;20.50;100.00;100613.31;5089401;28;20085;-64
2023/09/03 00:18:15;;;;;;;0.10;0.10;;;;;;;20.51;100.00;100625.84;5088753;28;20028;-64
2023/09/03 00:20:53;;;;;;;0.10;0.10;;;;;;;20.47;100.00;100610.81;5088640;28;20403;-63
2023/09/03 00:23:18;;;;;;;0.20;0.20;;;;;;;20.50;100.00;100621.44;5089173;28;20099;-64
2023/09/03 00:25:44;;;;;;;0.10;0.10;;;;;;;20.45;100.00;100620.84;5087623;28;20122;-64
2023/09/03 00:28:09;;;;;;;0.10;0.10;;;;;;;20.42;100.00;100615.66;5090100;28;20408;-63
2023/09/03 00:30:35;;;;;;;0.10;0.10;;;;;;;20.40;100.00;100622.09;5072918;28;20028;-63
2023/09/03 00:33:00;;;;;;;0.10;0.10;;;;;;;20.34;100.00;100623.38;5083422;28;20379;-63
2023/09/03 00:35:25;;;;;;;0.20;0.20;;;;;;;20.29;100.00;100630.91;5089231;28;20031;-63
2023/09/03 00:37:51;;;;;;;0.20;0.20;;;;;;;20.22;100.00;100618.72;5089458;28;20023;-63
2023/09/03 00:40:16;;;;;;;0.10;0.10;;;;;;;20.24;100.00;100630.31;5087649;28;20526;-64
2023/09/03 00:42:42;;;;;;;0.20;0.20;;;;;;;20.19;100.00;100631.56;5078640;28;20052;-63
2023/09/03 00:45:07;;;;;;;0.13;0.13;;;;;;;20.20;100.00;100635.97;5068438;28;20044;-63
2023/09/03 00:47:33;;;;;;;0.10;0.10;;;;;;;20.19;100.00;100639.66;5068177;28;20383;-64
2023/09/03 00:49:59;;;;;;;0.10;0.10;;;;;;;20.21;100.00;100638.63;5077525;28;20020;-63
2023/09/03 00:52:25;;;;;;;0.10;0.10;;;;;;;20.19;100.00;100645.94;5085889;28;20492;-63
2023/09/03 00:54:51;;;;;;;0.20;0.20;;;;;;;20.19;100.00;100645.06;5074485;28;20051;-64
2023/09/03 00:57:16;;;;;;;0.20;0.20;;;;;;;20.19;100.00;100643.25;5089669;28;20066;-64
2023/09/03 00:59:45;;;;;;;0.20;0.20;;;;;;;20.22;100.00;100648.44;5089638;28;20024;-64
2023/09/03 01:02:12;;;;;;;0.20;0.20;;;;;;;20.17;100.00;100642.47;5087629;28;20132;-63
2023/09/03 01:04:39;;;;;;;0.20;0.20;;;;;;;20.18;100.00;100652.28;5089081;28;20024;-63
2023/09/03 01:07:06;;;;;;;0.10;0.10;;;;;;;20.17;100.00;100647.88;5071438;28;20107;-64
2023/09/03 01:09:31;;;;;;;0.10;0.10;;;;;;;20.15;100.00;100652.47;5087832;28;20480;-63
2023/09/03 01:11:59;;;;;;;0.10;0.10;;;;;;;20.12;100.00;100666.16;5088588;28;20103;-63
2023/09/03 01:14:38;;;;;;;0.10;0.10;;;;;;;20.10;100.00;100651.88;5088740;28;20391;-64
2023/09/03 01:17:35;;;;;;;0.10;0.10;;;;;;;20.14;100.00;100658.84;5088061;28;20563;-64
2023/09/03 01:20:06;;;;;;;0.20;0.20;;;;;;;20.16;100.00;100667.75;5086805;28;20020;-64
2023/09/03 01:23:02;;;;;;;0.10;0.10;;;;;;;20.11;100.00;100675.22;5088463;28;20068;-63
2023/09/03 01:25:31;;;;;;;0.15;0.15;;;;;;;20.09;100.00;100671.75;5088115;28;20032;-64
2023/09/03 01:28:20;;;;;;;0.20;0.20;;;;;;;20.04;100.00;100670.28;5089103;28;20107;-63
2023/09/03 01:30:47;;;;;;;0.20;0.20;;;;;;;20.01;100.00;100673.16;5088035;28;20102;-64
2023/09/03 01:33:13;;;;;;;0.20;0.20;;;;;;;19.97;100.00;100677.88;5088773;28;20082;-64
2023/09/03 01:35:40;;;;;;;0.20;0.20;;;;;;;19.92;100.00;100671.88;5088966;28;20030;-63
2023/09/03 01:38:06;;;;;;;0.20;0.20;;;;;;;19.90;100.00;100668.41;5089305;28;20377;-63
2023/09/03 01:40:32;;;;;;;0.10;0.10;;;;;;;19.88;100.00;100678.47;5088077;28;20031;-63
2023/09/03 01:42:57;;;;;;;0.20;0.20;;;;;;;19.85;100.00;100684.00;5089056;28;20036;-63
2023/09/03 01:45:32;;;;;;;0.10;0.10;;;;;;;19.88;100.00;100688.38;5086034;28;20034;-63
2023/09/03 01:48:08;;;;;;;0.10;0.10;;;;;;;19.83;100.00;100685.97;5068605;28;20037;-63
2023/09/03 01:50:46;;;;;;;0.10;0.10;;;;;;;19.83;100.00;100691.38;5068500;28;20448;-63
2023/09/03 01:53:24;;;;;;;0.10;0.10;;;;;;;19.87;100.00;100711.81;5085260;28;20083;-63
2023/09/03 01:55:55;;;;;;;0.10;0.10;;;;;;;19.88;100.00;100710.84;5088873;28;20498;-63
2023/09/03 01:58:24;;;;;;;0.20;0.20;;;;;;;19.86;100.00;100712.78;5069957;28;20024;-63
2023/09/03 02:00:52;;;;;;;0.10;0.10;;;;;;;19.86;100.00;100725.41;5087632;28;20031;-63
2023/09/03 02:03:18;;;;;;;0.20;0.20;;;;;;;19.83;100.00;100721.06;5084591;28;20032;-63
2023/09/03 02:05:43;;;;;;;0.20;0.20;;;;;;;19.82;100.00;100719.31;5088346;28;20201;-63
2023/09/03 02:08:09;;;;;;;0.10;0.10;;;;;;;19.85;100.00;100727.22;5086374;28;20127;-63
2023/09/03 02:10:34;;;;;;;0.17;0.17;;;;;;;19.84;100.00;100730.88;5088174;28;20024;-63
2023/09/03 02:13:00;;;;;;;0.10;0.10;;;;;;;19.87;100.00;100736.09;5085982;28;20020;-63
2023/09/03 02:15:25;;;;;;;0.20;0.20;;;;;;;19.90;100.00;100746.72;5061461;28;20502;-64
2023/09/03 02:17:51;;;;;;;0.20;0.20;;;;;;;19.90;100.00;100746.72;5066531;28;20059;-64
2023/09/03 02:20:16;;;;;;;0.20;0.20;;;;;;;19.90;100.00;100745.88;5076550;28;20655;-63
2023/09/03 02:22:42;;;;;;;0.20;0.20;;;;;;;19.89;100.00;100749.50;5067964;28;20388;-63
2023/09/03 02:25:07;;;;;;;0.20;0.20;;;;;;;19.91;100.00;100753.00;5086153;28;20059;-63
2023/09/03 02:27:32;;;;;;;0.13;0.13;;;;;;;19.91;100.00;100751.19;5085748;28;20024;-63
2023/09/03 02:29:58;;;;;;;0.10;0.10;;;;;;;19.89;100.00;100744.09;5084975;28;20076;-64
2023/09/03 02:32:23;;;;;;;0.20;0.20;;;;;;;19.87;100.00;100746.91;5080452;28;20028;-63
2023/09/03 02:34:49;;;;;;;0.20;0.20;;;;;;;19.88;100.00;100737.88;5069940;28;20016;-63
2023/09/03 02:37:14;;;;;;;0.10;0.10;;;;;;;19.88;100.00;100734.28;5071611;28;20036;-63
2023/09/03 02:39:39;;;;;;;0.20;0.20;;;;;;;19.83;100.00;100737.25;5067727;28;20373;-63
2023/09/03 02:42:05;;;;;;;0.10;0.10;;;;;;;19.80;100.00;100745.56;5083412;28;20104;-63
2023/09/03 02:44:30;;;;;;;0.20;0.20;;;;;;;19.77;100.00;100745.69;5085327;28;20016;-63
2023/09/03 02:46:56;;;;;;;0.10;0.10;;;;;;;19.69;100.00;100733.63;5074026;28;20028;-63
2023/09/03 02:49:22;;;;;;;0.10;0.10;;;;;;;19.67;100.00;100739.09;5086775;28;20028;-63
2023/09/03 02:51:47;;;;;;;0.20;0.20;;;;;;;19.63;100.00;100748.34;5086298;28;20479;-63
2023/09/03 02:54:13;;;;;;;0.20;0.20;;;;;;;19.57;100.00;100746.03;5086128;28;20054;-64
2023/09/03 02:56:38;;;;;;;0.20;0.20;;;;;;;19.57;100.00;100744.16;5084414;28;20057;-63
2023/09/03 02:59:04;;;;;;;0.20;0.20;;;;;;;19.53;100.00;100753.41;5083059;28;20019;-64
2023/09/03 03:01:29;;;;;;;0.10;0.10;;;;;;;19.50;100.00;100750.03;5071000;28;20074;-64
2023/09/03 03:03:55;;;;;;;0.20;0.20;;;;;;;19.48;100.00;100751.94;5086515;28;20016;-64
2023/09/03 03:06:20;;;;;;;0.17;0.17;;;;;;;19.44;100.00;100756.63;5068183;28;20502;-63
2023/09/03 03:08:45;;;;;;;0.20;0.20;;;;;;;19.39;100.00;100757.84;5085257;28;20048;-64
2023/09/03 03:11:12;;;;;;;0.20;0.20;;;;;;;19.30;100.00;100755.69;5086129;28;20387;-64
2023/09/03 03:13:42;;;;;;;0.20;0.20;;;;;;;19.29;100.00;100753.94;5085798;28;20024;-64
2023/09/03 03:16:12;;;;;;;0.10;0.10;;;;;;;19.27;100.00;100753.13;5087523;28;20105;-64
2023/09/03 03:18:39;;;;;;;0.10;0.10;;;;;;;19.26;100.00;100759.44;5087103;28;20028;-64
2023/09/03 03:21:14;;;;;;;0.20;0.20;;;;;;;19.25;100.00;100757.72;5089956;28;20389;-63
2023/09/03 03:23:40;;;;;;;0.15;0.15;;;;;;;19.23;100.00;100765.03;5091870;28;20043;-64
2023/09/03 03:26:06;;;;;;;0.20;0.20;;;;;;;19.21;100.00;100761.53;5089649;28;20464;-63
2023/09/03 03:28:34;;;;;;;0.20;0.20;;;;;;;19.22;100.00;100774.09;5091263;28;20035;-64
2023/09/03 03:31:16;;;;;;;0.20;0.20;;;;;;;19.20;100.00;100776.00;5090508;28;20039;-63
2023/09/03 03:33:42;;;;;;;0.20;0.20;;;;;;;19.15;100.00;100778.97;5089728;28;20028;-63
2023/09/03 03:36:13;;;;;;;0.20;0.20;;;;;;;19.12;100.00;100779.13;5091102;28;20099;-63
2023/09/03 03:38:39;;;;;;;0.20;0.20;;;;;;;19.08;100.00;100776.66;5091337;28;20107;-63
2023/09/03 03:41:14;;;;;;;0.20;0.20;;;;;;;19.13;100.00;100786.25;5091305;28;20111;-63
2023/09/03 03:43:42;;;;;;;0.20;0.20;;;;;;;19.14;100.00;100781.75;5090253;28;20028;-63
2023/09/03 03:46:09;;;;;;;0.20;0.20;;;;;;;19.23;100.00;100783.91;5082884;28;20096;-63
2023/09/03 03:48:35;;;;;;;0.20;0.20;;;;;;;19.27;100.00;100785.50;5070783;28;20489;-63
2023/09/03 03:51:01;;;;;;;0.20;0.20;;;;;;;19.32;100.00;100784.28;5070553;28;20020;-64
2023/09/03 03:53:27;;;;;;;0.20;0.20;;;;;;;19.36;100.00;100785.88;5087160;28;20039;-63
2023/09/03 03:56:13;;;;;;;0.20;0.20;;;;;;;19.39;100.00;100788.41;5091058;28;20454;-63
2023/09/03 03:58:40;;;;;;;0.20;0.20;;;;;;;19.37;100.00;100789.47;5070419;28;20491;-64
2023/09/03 04:01:16;;;;;;;0.20;0.20;;;;;;;19.34;100.00;100785.09;5090841;28;20498;-63
2023/09/03 04:03:42;;;;;;;0.20;0.20;;;;;;;19.30;100.00;100790.75;5089170;28;20018;-63
2023/09/03 04:06:08;;;;;;;0.20;0.20;;;;;;;19.26;100.00;100792.72;5090151;28;20104;-63
2023/09/03 04:08:36;;;;;;;0.17;0.17;;;;;;;19.22;100.00;100790.28;5089051;28;20468;-63
2023/09/03 04:11:09;;;;;;;0.20;0.20;;;;;;;19.15;100.00;100792.44;5088605;28;20644;-64
2023/09/03 04:13:36;;;;;;;0.20;0.20;;;;;;;19.11;100.00;100790.84;5088532;28;20023;-63
2023/09/03 04:16:14;;;;;;;0.22;0.22;;;;;;;19.10;100.00;100790.94;5088947;28;20055;-63
2023/09/03 04:18:40;;;;;;;0.20;0.20;;;;;;;19.09;100.00;100800.00;5088680;28;20062;-63
2023/09/03 04:21:06;;;;;;;0.20;0.20;;;;;;;19.05;100.00;100793.03;5089159;28;20449;-63
2023/09/03 04:23:32;;;;;;;0.20;0.20;;;;;;;19.03;100.00;100797.63;5088949;28;20468;-63
2023/09/03 04:25:58;;;;;;;0.20;0.20;;;;;;;19.01;100.00;100796.84;5090336;28;20107;-63
2023/09/03 04:28:24;;;;;;;0.20;0.20;;;;;;;19.00;100.00;100795.09;5089444;28;20020;-63
2023/09/03 04:30:57;;;;;;;0.20;0.20;;;;;;;18.96;100.00;100804.31;5089712;28;20027;-63
2023/09/03 04:33:23;;;;;;;0.20;0.20;;;;;;;18.93;100.00;100810.75;5089072;28;20032;-63
2023/09/03 04:35:54;;;;;;;0.20;0.20;;;;;;;18.94;100.00;100804.41;5089796;28;20032;-63
2023/09/03 04:38:20;;;;;;;0.20;0.20;;;;;;;18.95;100.00;100797.16;5090030;28;20054;-63
2023/09/03 04:40:45;;;;;;;0.20;0.20;;;;;;;18.94;100.00;100800.84;5089345;28;20114;-63
2023/09/03 04:43:10;;;;;;;0.13;0.13;;;;;;;18.91;100.00;100811.78;5075976;28;20024;-63
2023/09/03 04:45:36;;;;;;;0.17;0.17;;;;;;;18.89;100.00;100817.28;5070802;28;20027;-63
2023/09/03 04:48:02;;;;;;;0.20;0.20;;;;;;;18.85;100.00;100801.31;5070642;28;20029;-63
2023/09/03 04:50:27;;;;;;;0.20;0.20;;;;;;;18.80;100.00;100798.88;5077167;28;20157;-64
2023/09/03 04:52:56;;;;;;;0.20;0.20;;;;;;;18.78;100.00;100805.31;5086893;28;20115;-63
2023/09/03 04:55:22;;;;;;;0.20;0.20;;;;;;;18.75;100.00;100803.66;5087422;28;20023;-63
2023/09/03 04:57:47;;;;;;;0.20;0.20;;;;;;;18.78;100.00;100803.47;5084997;28;20035;-63
2023/09/03 05:00:13;;;;;;;0.20;0.20;;;;;;;18.85;100.00;100809.41;5086252;28;20043;-63
2023/09/03 05:02:38;;;;;;;0.20;0.20;;;;;;;18.85;100.00;100820.19;5087379;28;20065;-63
2023/09/03 05:05:04;;;;;;;0.20;0.20;;;;;;;18.86;100.00;100816.56;5087036;28;20537;-64
2023/09/03 05:07:30;;;;;;;0.15;0.15;;;;;;;18.88;100.00;100820.06;5086177;28;20032;-63
2023/09/03 05:09:56;;;;;;;0.20;0.20;;;;;;;18.89;100.00;100821.78;5087935;28;20083;-63
2023/09/03 05:12:22;;;;;;;0.20;0.20;;;;;;;18.91;100.00;100820.72;5085475;28;20078;-63
2023/09/03 05:14:48;;;;;;;0.20;0.20;;;;;;;19.00;100.00;100830.16;5087543;28;20028;-64
2023/09/03 05:17:13;;;;;;;0.20;0.20;;;;;;;19.01;100.00;100834.59;5087304;28;20032;-63
2023/09/03 05:19:39;;;;;;;0.20;0.20;;;;;;;19.04;100.00;100834.44;5088370;28;20024;-63
2023/09/03 05:22:05;;;;;;;0.20;0.20;;;;;;;19.05;100.00;100844.25;5088627;28;20106;-63
2023/09/03 05:24:31;;;;;;;0.15;0.15;;;;;;;19.15;100.00;100846.38;5088683;28;20034;-63
2023/09/03 05:26:56;;;;;;;0.20;0.20;;;;;;;19.20;100.00;100846.13;5087326;28;20024;-63
2023/09/03 05:29:22;;;;;;;0.20;0.20;;;;;;;19.25;100.00;100844.94;5089064;28;20388;-63
2023/09/03 05:31:47;;;;;;;0.20;0.20;;;;;;;19.32;100.00;100850.88;5089094;28;20115;-63
2023/09/03 05:34:12;;;;;;;0.20;0.20;;;;;;;19.39;100.00;100846.88;5086988;28;20074;-63
2023/09/03 05:36:39;;;;;;;0.20;0.20;;;;;;;19.44;100.00;100859.16;5087216;28;20065;-64
2023/09/03 05:39:04;;;;;;;0.20;0.20;;;;;;;19.52;100.00;100869.56;5086480;28;20106;-63
2023/09/03 05:41:31;;;;;;;0.20;0.20;;;;;;;19.56;100.00;100880.09;5087105;28;20031;-63
2023/09/03 05:43:57;;;;;;;0.20;0.20;;;;;;;19.62;100.00;100884.25;5087222;28;20059;-63
2023/09/03 05:46:23;;;;;;;0.20;0.20;;;;;;;19.70;100.00;100884.72;5082829;28;20024;-63
2023/09/03 05:48:50;;;;;;;0.20;0.20;;;;;;;19.76;100.00;100895.16;5087107;28;20083;-63
2023/09/03 05:51:15;;;;;;;0.22;0.22;;;;;;;19.87;100.00;100894.56;5087050;28;20022;-63
2023/09/03 05:53:41;;;;;;;0.15;0.15;;;;;;;20.01;100.00;100895.53;5088555;28;20395;-63
2023/09/03 05:56:09;;;;;;;0.20;0.20;;;;;;;20.14;100.00;100909.19;5087350;28;20020;-63
2023/09/03 05:58:35;;;;;;;0.20;0.20;;;;;;;20.23;100.00;100906.84;5086829;28;20476;-63
2023/09/03 06:01:08;;;;;;;0.20;0.20;;;;;;;20.34;100.00;100908.94;5085299;28;20024;-63
2023/09/03 06:03:34;;;;;;;0.20;0.20;;;;;;;20.44;100.00;100912.84;5070349;28;20081;-62
2023/09/03 06:06:02;;;;;;;0.20;0.20;;;;;;;20.51;100.00;100912.38;5069445;28;20508;-63
2023/09/03 06:08:27;;;;;;;0.20;0.20;;;;;;;20.56;100.00;100912.97;5075954;28;20052;-63
2023/09/03 06:10:56;;;;;;;0.20;0.20;;;;;;;20.58;100.00;100902.94;5080479;28;20035;-62
2023/09/03 06:13:27;;;;;;;0.20;0.20;;;;;;;20.61;100.00;100891.06;5080664;28;20036;-62
2023/09/03 06:15:54;;;;;;;0.20;0.20;;;;;;;20.68;100.00;100893.34;5067988;28;20115;-62
2023/09/03 06:18:19;;;;;;;0.20;0.20;;;;;;;20.75;100.00;100902.81;5079394;28;20036;-62
2023/09/03 06:20:45;;;;;;;0.20;0.20;;;;;;;20.83;100.00;100908.63;5072348;28;20087;-62
2023/09/03 06:23:15;;;;;;;0.15;0.15;;;;;;;20.96;100.00;100914.16;5067921;28;20090;-63
2023/09/03 06:25:41;;;;;;;0.20;0.20;;;;;;;21.07;100.00;100910.84;5087701;28;20032;-64
2023/09/03 06:28:07;;;;;;;0.20;0.20;;;;;;;21.13;100.00;100907.75;5087982;28;20478;-63
2023/09/03 06:30:32;;;;;;;0.10;0.10;;;;;;;21.20;100.00;100914.53;5082708;28;20032;-63
2023/09/03 06:32:57;;;;;;;0.20;0.20;;;;;;;21.22;100.00;100910.75;5080599;28;20383;-64
2023/09/03 06:35:23;;;;;;;0.20;0.20;;;;;;;21.32;100.00;100922.75;5082361;28;20032;-63
2023/09/03 06:37:48;;;;;;;0.17;0.17;;;;;;;21.45;100.00;100922.88;5080811;28;20099;-63
2023/09/03 06:40:15;;;;;;;0.20;0.20;;;;;;;21.56;100.00;100925.75;5088085;28;20031;-62
2023/09/03 06:42:41;;;;;;;0.20;0.20;;;;;;;21.69;100.00;100927.59;5087513;28;20020;-63
2023/09/03 06:45:07;;;;;;;0.10;0.10;;;;;;;21.84;100.00;100931.19;5072714;28;20055;-63
2023/09/03 06:47:33;;;;;;;0.20;0.20;;;;;;;21.84;100.00;100933.91;5073333;28;21784;-62
2023/09/03 06:49:58;;;;;;;0.10;0.10;;;;;;;21.91;100.00;100932.56;5083012;28;20095;-59
2023/09/03 06:52:23;;;;;;;0.10;0.10;;;;;;;21.98;100.00;100940.16;5087154;28;20050;-58
2023/09/03 06:54:50;;;;;;;0.20;0.20;;;;;;;22.05;100.00;100943.34;5077604;28;21004;-62
2023/09/03 06:57:16;;;;;;;0.20;0.20;;;;;;;22.16;100.00;100948.94;5073119;28;20028;-62
2023/09/03 06:59:41;;;;;;;0.20;0.20;;;;;;;22.08;100.00;100951.28;5083822;28;20031;-62
2023/09/03 07:02:07;;;;;;;0.10;0.10;;;;;;;22.12;100.00;100953.66;5085887;28;20085;-63
2023/09/03 07:04:34;;;;;;;0.20;0.20;;;;;;;22.29;100.00;100963.41;5069241;28;20043;-62
2023/09/03 07:06:59;;;;;;;0.20;0.20;;;;;;;22.42;100.00;100953.50;5085883;28;20020;-62
2023/09/03 07:09:28;;;;;;;0.20;0.20;;;;;;;22.42;100.00;100955.34;5058824;28;20047;-62
2023/09/03 07:11:54;;;;;;;0.20;0.20;;;;;;;22.53;100.00;100964.56;5060892;28;20503;-62
2023/09/03 07:14:19;;;;;;;0.15;0.15;;;;;;;22.63;100.00;100960.25;5067076;28;20029;-62
2023/09/03 07:16:45;;;;;;;0.17;0.17;;;;;;;22.64;100.00;100967.41;5067338;28;20113;-62
2023/09/03 07:19:10;;;;;;;0.13;0.13;;;;;;;22.72;100.00;100965.03;5067312;28;20025;-63
2023/09/03 07:21:35;;;;;;;0.20;0.20;;;;;;;22.73;100.00;100972.22;5064811;28;20032;-62
2023/09/03 07:24:01;;;;;;;0.13;0.13;;;;;;;22.75;100.00;100956.69;5050642;28;20533;-62
2023/09/03 07:26:27;;;;;;;0.20;0.20;;;;;;;22.72;99.92;100948.78;5053881;28;20032;-63
2023/09/03 07:28:52;;;;;;;0.20;0.20;;;;;;;22.90;99.05;100963.78;5062965;28;20020;-61
2023/09/03 07:31:17;;;;;;;0.10;0.10;;;;;;;22.89;98.08;100967.50;5048721;28;20031;-62
2023/09/03 07:33:44;;;;;;;0.10;0.10;;;;;;;22.94;98.29;100976.19;5065959;28;20032;-62
2023/09/03 07:36:11;;;;;;;0.10;0.10;;;;;;;23.02;98.71;100979.25;5066160;28;20020;-62
2023/09/03 07:38:37;;;;;;;0.17;0.17;;;;;;;23.25;98.91;100983.97;5067275;28;20032;-62
2023/09/03 07:41:03;;;;;;;0.20;0.20;;;;;;;23.43;97.90;100982.72;5065784;28;20028;-62
2023/09/03 07:43:29;;;;;;;0.10;0.10;;;;;;;23.42;96.54;100980.97;5063965;28;20078;-63
2023/09/03 07:45:55;;;;;;;0.17;0.17;;;;;;;23.52;95.22;100988.47;5065280;28;20035;-62
2023/09/03 07:48:20;;;;;;;0.10;0.10;;;;;;;23.69;94.61;100980.00;5065679;28;20549;-62
2023/09/03 07:50:45;;;;;;;0.10;0.10;;;;;;;23.84;94.08;100979.75;5065275;28;20060;-62
2023/09/03 07:53:11;;;;;;;0.10;0.10;;;;;;;24.01;92.86;100982.16;5063959;28;20472;-63
2023/09/03 07:55:36;;;;;;;0.10;0.10;;;;;;;24.31;91.04;100989.94;5047502;28;20028;-62
2023/09/03 07:58:02;;;;;;;0.10;0.10;;;;;;;24.62;89.11;100994.81;5045195;28;20439;-62
2023/09/03 08:00:28;;;;;;;0.10;0.10;;;;;;;24.92;87.70;100998.00;5045681;28;20032;-62
2023/09/03 08:02:54;;;;;;;0.10;0.10;;;;;;;25.12;85.07;101005.50;5063877;28;20481;-63
2023/09/03 08:05:19;;;;;;;0.10;0.10;;;;;;;25.48;85.07;100985.44;5066816;28;20094;-62
2023/09/03 08:07:45;;;;;;;0.10;0.10;;;;;;;25.80;82.33;100991.91;5068270;28;20111;-62
2023/09/03 08:10:11;;;;;;;0.10;0.10;;;;;;;26.28;80.31;100987.09;5090595;28;20343;-62
2023/09/03 08:12:36;;;;;;;0.10;0.10;;;;;;;26.63;77.96;100998.69;5090129;28;20024;-62
2023/09/03 08:15:02;;;;;;;0.10;0.10;;;;;;;26.77;76.76;101001.19;5090551;28;20051;-63
2023/09/03 08:17:30;;;;;;;0.10;0.10;;;;;;;26.84;75.79;100996.94;5088560;28;20024;-62
2023/09/03 08:19:56;;;;;;;0.10;0.10;;;;;;;26.95;76.11;101000.47;5089927;28;20437;-62
2023/09/03 08:22:22;;;;;;;0.10;0.10;;;;;;;26.90;74.19;101007.34;5090468;28;20024;-62
2023/09/03 08:24:47;;;;;;;0.10;0.10;;;;;;;27.11;75.04;101003.66;5090802;28;20375;-62
2023/09/03 08:27:12;;;;;;;0.10;0.10;;;;;;;27.52;74.18;101010.16;5088803;28;20023;-61
2023/09/03 08:29:38;;;;;;;0.10;0.10;;;;;;;27.62;72.43;101011.97;5090170;28;20058;-62
2023/09/03 08:32:03;;;;;;;0.10;0.10;;;;;;;27.98;71.93;101014.25;5090067;28;20055;-62
2023/09/03 08:34:29;;;;;;;0.10;0.10;;;;;;;28.07;70.62;101016.13;5086996;28;20371;-61
2023/09/03 08:36:54;;;;;;;0.10;0.10;;;;;;;28.32;70.19;101014.78;5088649;28;20090;-62
2023/09/03 08:39:20;;;;;;;0.10;0.10;;;;;;;28.28;69.88;101021.56;5071682;28;20028;-62
2023/09/03 08:41:46;;;;;;;0.10;0.10;;;;;;;28.72;69.94;101028.50;5080581;28;20122;-63
2023/09/03 08:44:22;;;;;;;0.08;0.08;;;;;;;29.16;67.20;101028.88;5087795;28;20020;-63
2023/09/03 08:46:51;;;;;;;0.03;0.03;;;;;;;29.27;65.63;101025.13;5081750;28;20031;-63
2023/09/03 08:49:18;;;;;;;0.10;0.10;;;;;;;29.38;64.20;101024.97;5086712;28;20604;-62
2023/09/03 08:51:44;;;;;;;0.03;0.03;;;;;;;29.54;63.53;101030.72;5084581;28;20292;-62
2023/09/03 08:54:11;;;;;;;0.10;0.10;;;;;;;29.67;62.39;101038.69;5087571;28;20115;-62
2023/09/03 08:56:36;;;;;;;0.10;0.10;;;;;;;29.73;63.85;101022.50;5086829;28;20032;-63
2023/09/03 08:59:02;;;;;;;0.05;0.05;;;;;;;29.93;62.10;101026.94;5087448;28;20078;-62
2023/09/03 09:01:29;;;;;;;0.10;0.10;;;;;;;29.90;63.62;101018.13;5056212;28;20035;-62
2023/09/03 09:04:01;;;;;;;0.10;0.10;;;;;;;30.14;61.89;101024.84;5089422;28;20712;-62
2023/09/03 09:06:27;;;;;;;0.10;0.10;;;;;;;30.14;61.12;101022.09;5089693;28;20458;-62
2023/09/03 09:08:53;;;;;;;0.00;0.00;;;;;;;30.32;61.56;101012.06;5087625;28;20147;-62
2023/09/03 09:11:19;;;;;;;0.00;0.00;;;;;;;30.38;60.12;101011.47;5088391;28;20049;-62
2023/09/03 09:13:55;;;;;;;0.10;0.10;;;;;;;30.52;59.22;101010.97;5088688;28;20046;-62
2023/09/03 09:16:21;;;;;;;0.00;0.00;;;;;;;30.96;59.40;101014.75;5088279;28;20024;-62
2023/09/03 09:18:46;;;;;;;0.10;0.10;;;;;;;31.35;58.19;101018.09;5089736;28;20439;-62
2023/09/03 09:21:12;;;;;;;0.00;0.00;;;;;;;31.55;56.73;101025.13;5088280;28;20032;-63
2023/09/03 09:23:37;;;;;;;0.00;0.00;;;;;;;31.56;53.82;101026.84;5088360;28;20074;-61
2023/09/03 09:26:15;;;;;;;0.00;0.00;;;;;;;31.57;57.03;101023.94;5087806;28;20035;-62
2023/09/03 09:29:02;;;;;;;0.00;0.00;;;;;;;31.81;55.19;101026.00;5067416;28;20370;-61
2023/09/03 09:31:32;;;;;;;0.00;0.00;;;;;;;31.33;54.93;101026.50;5075427;28;20598;-62
2023/09/03 09:34:09;;;;;;;0.00;0.00;;;;;;;31.44;55.33;101029.00;5084746;28;20038;-62
2023/09/03 09:36:35;;;;;;;0.00;0.00;;;;;;;31.55;56.34;101028.72;5072962;28;20364;-61
2023/09/03 09:39:06;;;;;;;0.00;0.00;;;;;;;31.44;53.83;101033.63;5083480;28;20029;-61
2023/09/03 09:41:37;;;;;;;0.00;0.00;;;;;;;31.54;55.54;101039.91;5085713;28;20076;-61
2023/09/03 09:44:07;;;;;;;0.00;0.00;;;;;;;31.70;54.34;101040.88;5087904;28;20472;-62
2023/09/03 09:46:33;;;;;;;0.00;0.00;;;;;;;32.08;54.11;101045.13;5070624;28;20476;-61
2023/09/03 09:49:00;;;;;;;0.00;0.00;;;;;;;32.25;54.28;101041.47;5083363;28;20028;-61
2023/09/03 09:51:27;;;;;;;0.00;0.00;;;;;;;32.08;52.71;101042.38;5068665;28;20131;-61
2023/09/03 09:53:58;;;;;;;0.00;0.00;;;;;;;31.87;53.70;101041.91;5066748;28;20025;-61
2023/09/03 09:56:34;;;;;;;0.00;0.00;;;;;;;31.86;53.21;101037.44;5084919;28;20085;-61
2023/09/03 09:59:00;;;;;;;0.00;0.00;;;;;;;31.90;55.07;101041.56;5086699;28;20024;-61
2023/09/03 10:01:40;;;;;;;0.00;0.00;;;;;;;31.94;54.52;101040.25;5081729;28;20488;-61
2023/09/03 10:04:06;;;;;;;0.00;0.00;;;;;;;31.93;53.48;101041.25;5068785;28;20115;-61
2023/09/03 10:06:32;;;;;;;0.00;0.00;;;;;;;31.90;55.14;101047.97;5086118;28;20486;-61
2023/09/03 10:08:58;;;;;;;0.00;0.00;;;;;;;31.68;53.57;101045.69;5086410;28;20526;-61
2023/09/03 10:11:23;;;;;;;0.00;0.00;;;;;;;31.78;55.32;101054.72;5086506;28;20031;-61
2023/09/03 10:13:49;;;;;;;0.00;0.00;;;;;;;31.57;55.44;101050.56;5085738;28;20464;-62
2023/09/03 10:16:19;;;;;;;0.00;0.00;;;;;;;31.66;55.54;101055.13;5086625;28;20499;-62
2023/09/03 10:18:50;;;;;;;0.00;0.00;;;;;;;31.63;54.31;101058.22;5085743;28;20130;-61
2023/09/03 10:21:23;;;;;;;0.00;0.00;;;;;;;31.73;56.97;101050.72;5084759;28;20075;-62
2023/09/03 10:23:51;;;;;;;0.00;0.00;;;;;;;31.69;53.63;101060.31;5066292;28;20024;-61
2023/09/03 10:26:33;;;;;;;0.00;0.00;;;;;;;31.53;53.90;101065.69;5077181;28;20132;-61
2023/09/03 10:29:05;;;;;;;0.00;0.00;;;;;;;31.61;54.83;101052.00;5086329;28;20252;-62
2023/09/03 10:31:33;;;;;;;0.00;0.00;;;;;;;31.36;54.15;101047.31;5085968;28;20035;-62
2023/09/03 10:33:59;;;;;;;0.00;0.00;;;;;;;31.54;55.59;101045.41;5067945;28;20063;-61
2023/09/03 10:36:24;;;;;;;0.00;0.00;;;;;;;31.73;54.87;101036.97;5067515;28;20777;-61
2023/09/03 10:38:49;;;;;;;0.00;0.00;;;;;;;32.31;54.24;101029.78;5079290;28;20028;-61
2023/09/03 10:41:23;;;;;;;0.00;0.00;;;;;;;32.52;51.86;101027.50;5075615;28;20358;-62
2023/09/03 10:43:55;;;;;;;0.00;0.00;;;;;;;32.92;50.51;101037.81;5076876;28;20458;-62
2023/09/03 10:46:22;;;;;;;0.00;0.00;;;;;;;33.03;51.59;101038.38;5064161;28;20028;-62
2023/09/03 10:48:52;;;;;;;0.00;0.00;;;;;;;32.99;50.12;101025.97;5064719;28;20028;-62
2023/09/03 10:51:47;;;;;;;0.00;0.00;;;;;;;33.13;49.68;101022.53;5066179;28;20028;-63
2023/09/03 10:54:17;;;;;;;0.00;0.00;;;;;;;33.03;49.38;101016.31;5065609;28;20048;-62
2023/09/03 10:57:05;;;;;;;0.00;0.00;;;;;;;32.69;48.65;101023.78;5080945;28;20124;-63
2023/09/03 10:59:57;;;;;;;0.00;0.00;;;;;;;32.83;50.43;101022.28;5083917;28;20499;-62
2023/09/03 11:02:27;;;;;;;0.00;0.00;;;;;;;33.12;48.50;101011.66;5083048;28;20252;-62
2023/09/03 11:05:09;;;;;;;0.00;0.00;;;;;;;33.39;48.71;101017.72;5085236;28;20115;-61
2023/09/03 11:07:35;;;;;;;0.00;0.00;;;;;;;33.60;49.22;101016.38;5075233;28;20039;-63
2023/09/03 11:10:25;;;;;;;0.00;0.00;;;;;;;33.39;48.41;101011.34;5076298;28;20048;-62
2023/09/03 11:12:53;;;;;;;0.00;0.00;;;;;;;33.13;49.30;101018.94;5077163;28;20131;-62
2023/09/03 11:15:20;;;;;;;0.00;0.00;;;;;;;33.03;48.15;101024.56;5081007;28;20029;-62
2023/09/03 11:17:55;;;;;;;0.00;0.00;;;;;;;33.31;49.11;101026.00;5074296;28;20080;-62
2023/09/03 11:20:32;;;;;;;0.00;0.00;;;;;;;33.44;48.44;101019.16;5065048;28;20025;-62
2023/09/03 11:22:58;;;;;;;0.00;0.00;;;;;;;33.43;48.11;101022.94;5066098;28;20573;-63